Weather History for Gadsden, AL

Change the Weather History Date:

Thursday, January 17, 2013

  Actual Average Record
Temperature  
Mean Temperature 40 °F -  
Max Temperature 46 °F 49 °F 80 °F (1943)
Min Temperature 33 °F 29 °F 12 °F (1997)
Degree Days  
Heating Degree Days 26    
Moisture  
Dew Point 35 °F    
Average Humidity 85    
Maximum Humidity 93    
Minimum Humidity 70    
Precipitation  
Precipitation 0.71 in - - ()
Sea Level Pressure  
Sea Level Pressure 30.03 in    
Wind  
Wind Speed 7 mph (NNW)    
Max Wind Speed 17 mph    
Max Gust Speed 25 mph    
Visibility 7 miles    
Events      
Averages and records for this station are not official NWS values.
T = Trace of Precipitation, MM = Missing Value Source: NWS Daily Summary

Daily Weather History Graph

Daily Weather History Graph

Search for Another Location

Airport:

Trip Planner

Search our weather history database for the weather conditions in past years. The results will help you decide how hot, cold, wet, or windy it might be!

Date:

Astronomy

Jan. 17, 2013 Rise Set
Actual Time 6:48 AM CST 5:00 PM CST
Civil Twilight 6:21 AM CST 5:27 PM CST
Nautical Twilight 5:51 AM CST 5:58 PM CST
Astronomical Twilight 5:21 AM CST 6:28 PM CST
Moon 10:15 AM CST (1/17) 11:29 PM CST (1/17)
Length of Visible Light 11h 05m
Length of Day
10h 11m
Waxing Crescent, 38% of the Moon is Illuminated
Jan 17
Waxing Crescent
Jan 18
First Quarter
Jan 26
Full
Feb 3
Last Quarter
Feb 10
New

Hourly Weather History & Observations

Time (CST) Temp. Windchill Dew Point Humidity Pressure Visibility Wind Dir Wind Speed Gust Speed Precip Events Conditions
12:15 AM 44.6 °F 41.4 °F 41.0 °F 87% 29.99 in 9.0 mi NNW 5.8 mph - 0.01 in   Overcast
12:35 AM 44.6 °F 42.2 °F 41.0 °F 87% 30.00 in 3.0 mi NNW 4.6 mph - 0.02 in   Overcast
12:55 AM 42.8 °F 40.1 °F 41.0 °F 93% 30.00 in 3.0 mi NNW 4.6 mph - 0.03 in   Overcast
1:15 AM 42.8 °F 40.1 °F 41.0 °F 93% 29.99 in 2.5 mi NNW 4.6 mph - 0.01 in   Overcast
1:35 AM 42.8 °F 39.3 °F 41.0 °F 93% 29.98 in 5.0 mi North 5.8 mph - 0.02 in   Overcast
1:55 AM 42.8 °F 39.3 °F 41.0 °F 93% 29.96 in 5.0 mi NNE 5.8 mph - 0.02 in   Overcast
2:15 AM 42.8 °F 38.6 °F 41.0 °F 93% 29.96 in 3.0 mi NNW 6.9 mph - N/A   Overcast
2:35 AM 42.8 °F 38.6 °F 41.0 °F 93% 29.95 in 3.0 mi North 6.9 mph - 0.01 in   Overcast
2:55 AM 42.8 °F 37.5 °F 41.0 °F 93% 29.94 in 6.0 mi North 9.2 mph - 0.02 in   Overcast
3:35 AM 44.6 °F 40.2 °F 41.0 °F 87% 29.93 in 5.0 mi North 8.1 mph - 0.01 in   Overcast
3:55 AM 44.6 °F 40.7 °F 41.0 °F 87% 29.92 in 5.0 mi North 6.9 mph - 0.02 in   Overcast
4:15 AM 44.6 °F 42.2 °F 41.0 °F 87% 29.91 in 4.0 mi North 4.6 mph - N/A   Overcast
4:35 AM 44.6 °F 42.2 °F 41.0 °F 87% 29.91 in 5.0 mi NNW 4.6 mph - 0.01 in   Overcast
4:55 AM 44.6 °F 40.7 °F 41.0 °F 87% 29.92 in 5.0 mi North 6.9 mph - 0.01 in   Overcast
5:15 AM 44.6 °F 40.2 °F 42.8 °F 93% 29.90 in 5.0 mi NNW 8.1 mph - 0.01 in   Overcast
5:35 AM 44.6 °F 40.2 °F 41.0 °F 87% 29.91 in 6.0 mi NNW 8.1 mph - 0.01 in   Overcast
5:55 AM 44.6 °F 40.2 °F 42.8 °F 93% 29.90 in 4.0 mi North 8.1 mph - 0.02 in   Overcast
6:15 AM 44.6 °F 40.2 °F 42.8 °F 93% 29.90 in 7.0 mi North 8.1 mph - 0.01 in   Overcast
6:35 AM 44.6 °F 40.2 °F 41.0 °F 87% 29.91 in 6.0 mi North 8.1 mph - 0.01 in   Overcast
6:55 AM 44.6 °F 38.8 °F 41.0 °F 87% 29.89 in 8.0 mi North 11.5 mph - 0.01 in   Overcast
7:15 AM 44.6 °F 39.2 °F 41.0 °F 87% 29.88 in 8.0 mi NNE 10.4 mph - 0.01 in   Overcast
7:35 AM 44.6 °F 38.8 °F 41.0 °F 87% 29.88 in 10.0 mi NNE 11.5 mph - 0.01 in   Overcast
7:55 AM 44.6 °F 39.2 °F 41.0 °F 87% 29.85 in 10.0 mi NNE 10.4 mph - 0.01 in   Overcast
8:15 AM 44.6 °F 40.7 °F 41.0 °F 87% 29.86 in 10.0 mi NNE 6.9 mph - N/A   Overcast
8:35 AM 44.6 °F - 42.8 °F 93% 29.86 in 10.0 mi Calm Calm - N/A   Overcast
8:55 AM 46.4 °F 41.5 °F 42.8 °F 87% 29.84 in 10.0 mi ENE 10.4 mph - N/A   Overcast
9:15 AM 44.6 °F 42.2 °F 42.8 °F 93% 29.86 in 3.0 mi SE 4.6 mph - N/A   Overcast
9:35 AM 44.6 °F 39.7 °F 42.8 °F 93% 29.88 in 2.0 mi WSW 9.2 mph - 0.03 in   Overcast
9:55 AM 42.8 °F 37.0 °F 39.2 °F 87% 29.89 in 3.0 mi West 10.4 mph - 0.18 in   Overcast
10:35 AM 37.4 °F 28.2 °F 35.6 °F 93% 29.88 in 3.0 mi NW 16.1 mph 23.0 mph 0.13 in   Overcast
10:55 AM 37.4 °F 28.9 °F 35.6 °F 93% 29.88 in 5.0 mi NW 13.8 mph 19.6 mph 0.13 in   Overcast
11:15 AM 37.4 °F 30.3 °F 33.8 °F 87% 29.88 in 7.0 mi NW 10.4 mph 23.0 mph N/A   Overcast
11:35 AM 37.4 °F 28.5 °F 33.8 °F 87% 29.88 in 10.0 mi WNW 15.0 mph 18.4 mph 0.01 in   Mostly Cloudy
11:55 AM 37.4 °F 28.2 °F 33.8 °F 87% 29.88 in 8.0 mi NW 16.1 mph 23.0 mph 0.01 in   Overcast
12:15 PM 37.4 °F 30.3 °F 33.8 °F 87% 29.87 in 9.0 mi NW 10.4 mph 17.3 mph N/A   Overcast
12:35 PM 35.6 °F 27.5 °F 32.0 °F 87% 29.87 in 5.0 mi NW 11.5 mph 20.7 mph 0.01 in   Overcast
12:55 PM 35.6 °F 27.1 °F 32.0 °F 87% 29.87 in 8.0 mi NW 12.7 mph 24.2 mph 0.01 in   Overcast
1:15 PM 35.6 °F 26.6 °F 30.2 °F 81% 29.88 in 10.0 mi NW 13.8 mph 25.3 mph N/A   Overcast
1:35 PM 35.6 °F 25.5 °F 30.2 °F 81% 29.89 in 10.0 mi NW 17.3 mph 25.3 mph N/A   Overcast
1:55 PM 35.6 °F 27.1 °F 30.2 °F 81% 29.91 in 9.0 mi NW 12.7 mph 25.3 mph N/A   Overcast
2:15 PM 35.6 °F 28.0 °F 30.2 °F 81% 29.94 in 3.0 mi NW 10.4 mph 18.4 mph 0.02 in   Overcast
2:35 PM 33.8 °F 24.8 °F 30.2 °F 87% 29.96 in 2.5 mi NW 12.7 mph - 0.04 in   Overcast
2:55 PM 35.6 °F 27.1 °F 30.2 °F 81% 29.98 in 3.0 mi NW 12.7 mph 20.7 mph 0.05 in   Overcast
3:15 PM 33.8 °F 27.7 °F 30.2 °F 87% 30.02 in 1.5 mi NW 6.9 mph 16.1 mph 0.03 in   Overcast
3:35 PM 33.8 °F 27.0 °F 30.2 °F 87% 30.04 in 2.0 mi WNW 8.1 mph - 0.06 in   Overcast
3:55 PM 33.8 °F 26.4 °F 30.2 °F 87% 30.07 in 1.5 mi NW 9.2 mph - 0.09 in   Overcast
4:15 PM 33.8 °F - 30.2 °F 87% 30.10 in 4.0 mi Calm Calm - 0.06 in   Overcast
4:35 PM 35.6 °F - 30.2 °F 81% 30.12 in 10.0 mi Calm Calm - 0.08 in   Mostly Cloudy
4:55 PM 35.6 °F - 30.2 °F 81% 30.14 in 10.0 mi Calm Calm - 0.09 in   Mostly Cloudy
5:15 PM 35.6 °F - 30.2 °F 81% 30.16 in 10.0 mi Calm Calm - 0.01 in   Mostly Cloudy
5:35 PM 35.6 °F 32.8 °F 32.0 °F 87% 30.18 in 10.0 mi North 3.5 mph - 0.01 in   Mostly Cloudy
5:55 PM 35.6 °F 32.8 °F 30.2 °F 81% 30.18 in 10.0 mi NNE 3.5 mph - 0.01 in   Partly Cloudy
6:15 PM 37.4 °F 34.9 °F 32.0 °F 81% 30.22 in 10.0 mi NNW 3.5 mph - N/A   Clear
6:35 PM 37.4 °F 32.1 °F 33.8 °F 87% 30.23 in 10.0 mi NW 6.9 mph - N/A   Clear
6:55 PM 37.4 °F 30.3 °F 32.0 °F 81% 30.24 in 10.0 mi NW 10.4 mph 16.1 mph N/A   Clear
7:15 PM 37.4 °F 29.8 °F 33.8 °F 87% 30.24 in 10.0 mi NW 11.5 mph - N/A   Clear
7:35 PM 37.4 °F 33.8 °F 33.8 °F 87% 30.26 in 10.0 mi NNW 4.6 mph - N/A   Clear
7:55 PM 37.4 °F 34.9 °F 32.0 °F 81% 30.26 in 10.0 mi North 3.5 mph - N/A   Clear
8:15 PM 37.4 °F 34.9 °F 30.2 °F 75% 30.27 in 10.0 mi NNE 3.5 mph - N/A   Clear
8:55 PM 37.4 °F 32.8 °F 30.2 °F 75% 30.30 in 10.0 mi NNW 5.8 mph - N/A   Clear
9:15 PM 37.4 °F 32.8 °F 30.2 °F 75% 30.31 in 10.0 mi North 5.8 mph - N/A   Clear
9:55 PM 37.4 °F 32.8 °F 28.4 °F 70% 30.32 in 10.0 mi North 5.8 mph - N/A   Clear
10:15 PM 37.4 °F 32.1 °F 28.4 °F 70% 30.33 in 10.0 mi North 6.9 mph - N/A   Clear
10:35 PM 37.4 °F 32.1 °F 28.4 °F 70% 30.34 in 10.0 mi North 6.9 mph - N/A   Clear
10:55 PM 37.4 °F 32.1 °F 28.4 °F 70% 30.34 in 10.0 mi North 6.9 mph - N/A   Clear
11:15 PM 37.4 °F 32.8 °F 28.4 °F 70% 30.35 in 10.0 mi NNE 5.8 mph - N/A   Clear
11:35 PM 35.6 °F 28.0 °F 28.4 °F 75% 30.35 in 10.0 mi North 10.4 mph - N/A   Clear
11:55 PM 37.4 °F 30.8 °F 28.4 °F 70% 30.36 in 10.0 mi North 9.2 mph - N/A   Clear